createdAt,value
2023-06-06T00:00:36.436Z,0.00
2023-06-06T00:01:36.440Z,0.00
2023-06-06T00:02:36.514Z,0.00
2023-06-06T00:03:36.562Z,0.00
2023-06-06T00:04:36.445Z,0.00
2023-06-06T00:05:36.408Z,0.00
2023-06-06T00:06:36.389Z,0.00
2023-06-06T00:07:36.390Z,0.00
2023-06-06T00:08:36.358Z,0.00
2023-06-06T00:09:36.360Z,0.00
2023-06-06T00:10:36.351Z,0.00
2023-06-06T00:11:36.333Z,0.00
2023-06-06T00:12:36.317Z,0.00
2023-06-06T00:13:36.310Z,0.00
2023-06-06T00:14:36.311Z,0.00
2023-06-06T00:15:36.282Z,0.00
2023-06-06T00:16:36.308Z,0.00
2023-06-06T00:17:36.290Z,0.00
2023-06-06T00:18:36.255Z,0.00
2023-06-06T00:19:36.238Z,0.00
2023-06-06T00:20:36.213Z,0.00
2023-06-06T00:21:36.216Z,0.00
2023-06-06T00:22:36.206Z,0.00
2023-06-06T00:23:36.209Z,0.00
2023-06-06T00:24:36.183Z,0.00
2023-06-06T00:25:36.169Z,0.00
2023-06-06T00:26:36.172Z,0.00
2023-06-06T00:27:36.193Z,0.00
2023-06-06T00:28:36.125Z,0.00
2023-06-06T00:29:36.127Z,0.00
2023-06-06T00:30:36.119Z,0.00
2023-06-06T00:31:36.155Z,0.00
2023-06-06T00:32:36.238Z,0.00
2023-06-06T00:33:36.092Z,0.00
2023-06-06T00:34:36.078Z,0.00
2023-06-06T00:35:36.105Z,0.00
2023-06-06T00:36:36.078Z,0.00
2023-06-06T00:37:36.059Z,0.00
2023-06-06T00:38:36.044Z,0.00
2023-06-06T00:39:36.019Z,0.00
2023-06-06T00:40:36.012Z,0.00
2023-06-06T00:41:36.016Z,0.00
2023-06-06T00:42:35.987Z,0.00
2023-06-06T00:43:35.978Z,0.00
2023-06-06T00:44:35.973Z,0.00
2023-06-06T00:45:35.971Z,0.00
2023-06-06T00:46:35.975Z,0.00
2023-06-06T00:47:35.992Z,0.00
2023-06-06T00:48:35.946Z,0.00
2023-06-06T00:49:35.990Z,0.00
2023-06-06T00:50:35.919Z,0.00
2023-06-06T00:51:35.919Z,0.00
2023-06-06T00:52:35.897Z,0.00
2023-06-06T00:53:35.882Z,0.00
2023-06-06T00:54:35.863Z,0.00
2023-06-06T00:55:35.843Z,0.00
2023-06-06T00:56:35.844Z,0.00
2023-06-06T00:57:35.831Z,0.00
2023-06-06T00:58:37.696Z,0.00
2023-06-06T00:59:35.821Z,0.00
2023-06-06T01:00:35.802Z,0.00
2023-06-06T01:01:35.829Z,0.00
2023-06-06T01:02:35.846Z,0.00
2023-06-06T01:03:35.893Z,0.00
2023-06-06T01:04:35.759Z,0.00
2023-06-06T01:05:35.754Z,0.00
2023-06-06T01:06:35.734Z,0.00
2023-06-06T01:07:35.760Z,0.00
2023-06-06T01:08:35.713Z,0.00
2023-06-06T01:09:35.699Z,0.00
2023-06-06T01:10:35.716Z,0.00
2023-06-06T01:11:35.688Z,0.00
2023-06-06T01:12:35.664Z,0.00
2023-06-06T01:13:35.687Z,0.00
2023-06-06T01:14:35.658Z,0.00
2023-06-06T01:15:35.670Z,0.00
2023-06-06T01:16:35.630Z,0.00
2023-06-06T01:17:35.676Z,0.00
2023-06-06T01:18:35.602Z,0.00
2023-06-06T01:19:35.602Z,0.00
2023-06-06T01:20:56.593Z,0.00
2023-06-06T01:21:35.563Z,0.00
2023-06-06T01:22:35.574Z,0.00
2023-06-06T01:23:35.610Z,0.00
2023-06-06T01:24:35.540Z,0.00
2023-06-06T01:25:35.554Z,0.00
2023-06-06T01:26:35.545Z,0.00
2023-06-06T01:27:35.504Z,0.00
2023-06-06T01:28:35.488Z,0.00
2023-06-06T01:29:35.483Z,0.00
2023-06-06T01:30:35.480Z,0.00
2023-06-06T01:31:35.521Z,0.00
2023-06-06T01:32:35.494Z,0.00
2023-06-06T01:33:35.419Z,0.00
2023-06-06T01:34:35.410Z,0.00
2023-06-06T01:35:35.422Z,0.00
2023-06-06T01:36:35.427Z,0.00
2023-06-06T01:37:35.391Z,0.00
2023-06-06T01:38:35.370Z,0.00
2023-06-06T01:39:35.367Z,0.00
2023-06-06T01:40:35.396Z,0.00
2023-06-06T01:41:35.352Z,0.00
2023-06-06T01:42:35.350Z,0.00
2023-06-06T01:43:35.337Z,0.00
2023-06-06T01:44:35.338Z,0.00
2023-06-06T01:45:35.329Z,0.00
2023-06-06T01:46:35.376Z,0.00
2023-06-06T01:47:35.317Z,0.00
2023-06-06T01:48:35.262Z,0.00
2023-06-06T01:49:35.259Z,0.00
2023-06-06T01:50:35.262Z,0.00
2023-06-06T01:51:35.222Z,0.00
2023-06-06T01:52:35.233Z,0.00
2023-06-06T01:53:35.235Z,0.00
2023-06-06T01:54:35.226Z,0.00
2023-06-06T01:55:35.211Z,0.00
2023-06-06T01:56:35.203Z,0.00
2023-06-06T01:57:35.186Z,0.00
2023-06-06T01:58:35.198Z,0.00
2023-06-06T01:59:35.149Z,0.00
2023-06-06T02:00:35.166Z,0.00
2023-06-06T02:01:35.209Z,0.00
2023-06-06T02:02:35.229Z,0.00
2023-06-06T02:03:35.177Z,0.00
2023-06-06T02:04:35.113Z,0.00
2023-06-06T02:05:35.114Z,0.00
2023-06-06T02:06:35.081Z,0.00
2023-06-06T02:07:35.053Z,0.00
2023-06-06T02:08:35.093Z,0.00
2023-06-06T02:09:35.048Z,0.00
2023-06-06T02:10:35.055Z,0.00
2023-06-06T02:11:35.014Z,0.00
2023-06-06T02:12:35.018Z,0.00
2023-06-06T02:13:35.017Z,0.00
2023-06-06T02:14:35.010Z,0.00
2023-06-06T02:15:34.992Z,0.00
2023-06-06T02:16:35.021Z,0.00
2023-06-06T02:17:34.988Z,0.00
2023-06-06T02:18:34.979Z,0.00
2023-06-06T02:19:34.944Z,0.00
2023-06-06T02:20:34.961Z,0.00
2023-06-06T02:21:34.907Z,0.00
2023-06-06T02:22:34.921Z,0.00
2023-06-06T02:23:34.936Z,0.00
2023-06-06T02:24:34.894Z,0.00
2023-06-06T02:25:34.860Z,0.00
2023-06-06T02:26:34.850Z,0.00
2023-06-06T02:27:34.836Z,0.00
2023-06-06T02:28:34.846Z,0.00
2023-06-06T02:29:34.832Z,0.00
2023-06-06T02:30:34.827Z,0.00
2023-06-06T02:31:34.811Z,0.00
2023-06-06T02:32:34.823Z,0.00
2023-06-06T02:33:34.780Z,0.00
2023-06-06T02:34:34.766Z,0.00
2023-06-06T02:35:34.748Z,0.00
2023-06-06T02:36:34.746Z,0.00
2023-06-06T02:37:34.757Z,0.00
2023-06-06T02:38:34.771Z,0.00
2023-06-06T02:39:34.719Z,0.00
2023-06-06T02:40:34.716Z,0.00
2023-06-06T02:41:34.700Z,0.00
2023-06-06T02:42:34.683Z,0.00
2023-06-06T02:43:34.695Z,0.00
2023-06-06T02:44:34.679Z,0.00
2023-06-06T02:45:34.656Z,0.00
2023-06-06T02:46:34.686Z,0.00
2023-06-06T02:47:34.726Z,0.00
2023-06-06T02:48:34.644Z,0.00
2023-06-06T02:49:34.603Z,0.00
2023-06-06T02:50:34.614Z,0.00
2023-06-06T02:51:34.576Z,0.00
2023-06-06T02:52:34.584Z,0.00
2023-06-06T02:53:34.589Z,0.00
2023-06-06T02:54:34.555Z,4.00
2023-06-06T02:55:34.543Z,4.00
2023-06-06T02:56:34.536Z,4.00
2023-06-06T02:57:34.510Z,0.00
2023-06-06T02:58:34.521Z,4.00
2023-06-06T02:59:34.527Z,4.00
2023-06-06T03:00:34.508Z,4.00
2023-06-06T03:01:34.561Z,4.00
2023-06-06T03:02:34.487Z,8.00
2023-06-06T03:03:34.474Z,8.00
2023-06-06T03:04:34.470Z,12.00
2023-06-06T03:05:34.456Z,12.00
2023-06-06T03:06:34.434Z,12.00
2023-06-06T03:07:34.423Z,12.00
2023-06-06T03:08:34.393Z,12.00
2023-06-06T03:09:34.408Z,16.00
2023-06-06T03:10:34.400Z,16.00
2023-06-06T03:11:34.376Z,20.00
2023-06-06T03:12:34.398Z,24.00
2023-06-06T03:13:34.362Z,24.00
2023-06-06T03:14:41.261Z,28.00
2023-06-06T03:15:35.322Z,32.00
2023-06-06T03:16:34.417Z,36.00
2023-06-06T03:17:34.346Z,40.00
2023-06-06T03:18:34.307Z,44.00
2023-06-06T03:19:34.294Z,48.00
2023-06-06T03:20:34.300Z,52.00
2023-06-06T03:21:34.275Z,60.00
2023-06-06T03:22:34.265Z,60.00
2023-06-06T03:23:34.278Z,68.00
2023-06-06T03:24:34.238Z,72.00
2023-06-06T03:25:34.234Z,80.00
2023-06-06T03:26:34.221Z,84.00
2023-06-06T03:27:34.224Z,88.00
2023-06-06T03:28:34.187Z,96.00
2023-06-06T03:29:34.195Z,104.00
2023-06-06T03:30:34.229Z,112.00
2023-06-06T03:31:34.338Z,116.00
2023-06-06T03:32:34.191Z,124.00
2023-06-06T03:33:34.124Z,132.00
2023-06-06T03:34:34.141Z,136.00
2023-06-06T03:35:34.126Z,144.00
2023-06-06T03:36:34.171Z,156.00
2023-06-06T03:37:34.111Z,164.00
2023-06-06T03:38:34.081Z,172.00
2023-06-06T03:39:34.061Z,184.00
2023-06-06T03:40:34.065Z,192.00
2023-06-06T03:41:34.059Z,196.00
2023-06-06T03:42:34.046Z,208.00
2023-06-06T03:43:34.044Z,216.00
2023-06-06T03:44:34.035Z,228.00
2023-06-06T03:45:34.021Z,240.00
2023-06-06T03:46:34.022Z,244.00
2023-06-06T03:47:34.025Z,256.00
2023-06-06T03:48:33.984Z,268.00
2023-06-06T03:49:33.954Z,276.00
2023-06-06T03:50:33.974Z,288.00
2023-06-06T03:51:33.967Z,300.00
2023-06-06T03:52:33.948Z,312.00
2023-06-06T03:53:33.949Z,320.00
2023-06-06T03:54:33.915Z,332.00
2023-06-06T03:55:33.937Z,340.00
2023-06-06T03:56:33.884Z,352.00
2023-06-06T03:57:34.056Z,364.00
2023-06-06T03:58:33.894Z,372.00
2023-06-06T03:59:33.931Z,384.00
2023-06-06T04:00:33.860Z,396.00
2023-06-06T04:01:33.894Z,404.00
2023-06-06T04:02:33.861Z,416.00
2023-06-06T04:03:33.933Z,428.00
2023-06-06T04:04:34.151Z,440.00
2023-06-06T04:05:33.799Z,452.00
2023-06-06T04:06:33.779Z,460.00
2023-06-06T04:07:33.778Z,476.00
2023-06-06T04:08:33.758Z,484.00
2023-06-06T04:09:33.926Z,496.00
2023-06-06T04:10:33.746Z,508.00
2023-06-06T04:11:33.761Z,516.00
2023-06-06T04:12:33.719Z,528.00
2023-06-06T04:13:33.700Z,540.00
2023-06-06T04:14:33.699Z,548.00
2023-06-06T04:15:33.718Z,560.00
2023-06-06T04:16:33.655Z,572.00
2023-06-06T04:17:33.692Z,584.00
2023-06-06T04:18:33.642Z,596.00
2023-06-06T04:19:33.680Z,608.00
2023-06-06T04:20:33.627Z,620.00
2023-06-06T04:21:33.632Z,628.00
2023-06-06T04:22:33.599Z,640.00
2023-06-06T04:23:33.640Z,648.00
2023-06-06T04:24:33.581Z,660.00
2023-06-06T04:25:33.603Z,672.00
2023-06-06T04:26:33.557Z,684.00
2023-06-06T04:27:33.553Z,696.00
2023-06-06T04:28:34.254Z,704.00
2023-06-06T04:29:35.701Z,716.00
2023-06-06T04:30:33.543Z,728.00
2023-06-06T04:31:34.214Z,736.00
2023-06-06T04:32:33.570Z,744.00
2023-06-06T04:33:33.519Z,760.00
2023-06-06T04:34:33.485Z,772.00
2023-06-06T04:35:33.474Z,780.00
2023-06-06T04:36:33.454Z,792.00
2023-06-06T04:37:33.577Z,800.00
2023-06-06T04:38:33.430Z,812.00
2023-06-06T04:39:33.454Z,820.00
2023-06-06T04:40:46.545Z,832.00
2023-06-06T04:42:33.393Z,852.00
2023-06-06T04:43:33.383Z,860.00
2023-06-06T04:44:33.365Z,872.00
2023-06-06T04:45:33.354Z,884.00
2023-06-06T04:46:33.406Z,892.00
2023-06-06T04:47:33.435Z,900.00
2023-06-06T04:48:33.334Z,912.00
2023-06-06T04:49:33.331Z,924.00
2023-06-06T04:50:33.294Z,932.00
2023-06-06T04:51:33.299Z,940.00
2023-06-06T04:52:33.274Z,952.00
2023-06-06T04:53:33.276Z,960.00
2023-06-06T04:54:33.262Z,972.00
2023-06-06T04:55:33.263Z,980.00
2023-06-06T04:56:33.225Z,992.00
2023-06-06T04:57:33.238Z,1000.00
2023-06-06T04:58:33.232Z,1012.00
2023-06-06T04:59:33.197Z,1020.00
2023-06-06T05:00:33.217Z,1028.00
2023-06-06T05:01:33.362Z,1040.00
2023-06-06T05:02:33.243Z,1048.00
2023-06-06T05:03:33.253Z,1056.00
2023-06-06T05:04:33.192Z,1068.00
2023-06-06T05:05:33.148Z,1076.00
2023-06-06T05:06:33.135Z,1084.00
2023-06-06T05:07:33.128Z,1096.00
2023-06-06T05:08:33.118Z,1104.00
2023-06-06T05:09:33.116Z,1116.00
2023-06-06T05:10:33.096Z,1120.00
2023-06-06T05:11:33.114Z,1128.00
2023-06-06T05:12:33.078Z,1140.00
2023-06-06T05:13:33.061Z,1148.00
2023-06-06T05:14:33.052Z,1156.00
2023-06-06T05:15:33.063Z,1160.00
2023-06-06T05:16:33.048Z,1168.00
2023-06-06T05:17:33.094Z,1180.00
2023-06-06T05:18:33.025Z,1188.00
2023-06-06T05:19:33.002Z,1196.00
2023-06-06T05:20:32.975Z,1200.00
2023-06-06T05:21:32.962Z,1208.00
2023-06-06T05:22:32.967Z,1216.00
2023-06-06T05:23:33.109Z,1216.00
2023-06-06T05:24:32.948Z,1220.00
2023-06-06T05:25:32.938Z,1208.00
2023-06-06T05:26:32.917Z,1204.00
2023-06-06T05:27:32.912Z,1220.00
2023-06-06T05:28:32.896Z,1220.00
2023-06-06T05:29:32.885Z,1224.00
2023-06-06T05:30:32.876Z,1228.00
2023-06-06T05:31:32.880Z,1232.00
2023-06-06T05:32:32.952Z,1236.00
2023-06-06T05:33:32.872Z,1244.00
2023-06-06T05:34:32.832Z,1252.00
2023-06-06T05:35:32.832Z,1256.00
2023-06-06T05:36:32.883Z,1264.00
2023-06-06T05:37:32.810Z,1276.00
2023-06-06T05:38:32.788Z,1312.00
2023-06-06T05:39:32.766Z,1304.00
2023-06-06T05:40:32.769Z,1340.00
2023-06-06T05:41:32.777Z,1344.00
2023-06-06T05:42:32.736Z,1368.00
2023-06-06T05:43:32.734Z,1384.00
2023-06-06T05:44:32.750Z,1384.00
2023-06-06T05:45:32.716Z,1400.00
2023-06-06T05:46:32.740Z,1408.00
2023-06-06T05:47:32.703Z,1408.00
2023-06-06T05:48:32.693Z,1388.00
2023-06-06T05:49:32.668Z,1396.00
2023-06-06T05:50:32.986Z,1392.00
2023-06-06T05:51:33.425Z,1416.00
2023-06-06T05:52:32.823Z,1460.00
2023-06-06T05:53:33.732Z,1456.00
2023-06-06T05:54:49.102Z,1444.00
2023-06-06T05:55:34.608Z,1460.00
2023-06-06T05:56:33.314Z,1480.00
2023-06-06T05:57:33.298Z,1496.00
2023-06-06T05:58:34.572Z,1500.00
2023-06-06T05:59:33.242Z,1500.00
2023-06-06T06:00:33.575Z,1536.00
2023-06-06T06:01:33.640Z,1504.00
2023-06-06T06:02:32.825Z,1504.00
2023-06-06T06:03:33.470Z,1508.00
2023-06-06T06:04:33.306Z,1508.00
2023-06-06T06:05:32.840Z,1536.00
2023-06-06T06:06:34.034Z,1504.00
2023-06-06T06:07:32.517Z,1532.00
2023-06-06T06:08:33.189Z,1508.00
2023-06-06T06:09:32.513Z,1588.00
2023-06-06T06:10:33.144Z,1564.00
2023-06-06T06:11:32.457Z,1612.00
2023-06-06T06:12:33.905Z,1624.00
2023-06-06T06:13:32.413Z,1636.00
2023-06-06T06:14:33.386Z,1656.00
2023-06-06T06:15:32.876Z,1692.00
2023-06-06T06:16:33.396Z,1748.00
2023-06-06T06:17:32.439Z,1816.00
2023-06-06T06:18:33.853Z,1864.00
2023-06-06T06:19:32.603Z,1880.00
2023-06-06T06:20:33.323Z,1868.00
2023-06-06T06:21:32.350Z,1840.00
2023-06-06T06:22:33.021Z,1808.00
2023-06-06T06:23:32.346Z,1776.00
2023-06-06T06:24:33.271Z,1760.00
2023-06-06T06:25:32.322Z,1744.00
2023-06-06T06:26:34.261Z,1736.00
2023-06-06T06:27:32.270Z,1740.00
2023-06-06T06:28:33.738Z,1740.00
2023-06-06T06:29:32.255Z,1744.00
2023-06-06T06:30:33.744Z,1748.00
2023-06-06T06:31:32.301Z,1752.00
2023-06-06T06:32:32.221Z,1756.00
2023-06-06T06:33:32.218Z,1760.00
2023-06-06T06:34:32.259Z,1764.00
2023-06-06T06:35:32.211Z,1772.00
2023-06-06T06:36:32.279Z,1772.00
2023-06-06T06:37:32.157Z,1780.00
2023-06-06T06:38:32.148Z,1788.00
2023-06-06T06:39:32.179Z,1788.00
2023-06-06T06:40:32.111Z,1796.00
2023-06-06T06:41:32.108Z,1800.00
2023-06-06T06:42:32.093Z,1804.00
2023-06-06T06:43:32.827Z,1812.00
2023-06-06T06:44:32.062Z,1820.00
2023-06-06T06:45:32.088Z,1820.00
2023-06-06T06:46:32.083Z,1828.00
2023-06-06T06:47:32.068Z,1832.00
2023-06-06T06:48:32.024Z,1836.00
2023-06-06T06:49:32.024Z,1840.00
2023-06-06T06:50:32.036Z,1844.00
2023-06-06T06:51:32.315Z,1844.00
2023-06-06T06:52:31.970Z,1848.00
2023-06-06T06:53:32.000Z,1852.00
2023-06-06T06:54:31.945Z,1860.00
2023-06-06T06:55:31.944Z,1868.00
2023-06-06T06:56:31.997Z,1872.00
2023-06-06T06:57:31.932Z,1880.00
2023-06-06T06:58:31.909Z,1884.00
2023-06-06T06:59:31.925Z,1888.00
2023-06-06T07:00:31.891Z,1896.00
2023-06-06T07:01:31.936Z,1900.00
2023-06-06T07:02:31.914Z,1904.00
2023-06-06T07:03:31.874Z,1912.00
2023-06-06T07:04:31.853Z,1916.00
2023-06-06T07:05:31.924Z,1924.00
2023-06-06T07:06:31.833Z,1928.00
2023-06-06T07:07:31.818Z,1932.00
2023-06-06T07:08:31.814Z,1940.00
2023-06-06T07:09:31.792Z,1944.00
2023-06-06T07:10:31.787Z,1952.00
2023-06-06T07:11:31.794Z,1960.00
2023-06-06T07:12:31.790Z,1968.00
2023-06-06T07:13:31.748Z,1972.00
2023-06-06T07:14:31.722Z,1980.00
2023-06-06T07:15:31.781Z,1992.00
2023-06-06T07:16:31.827Z,2000.00
2023-06-06T07:17:31.719Z,2008.00
2023-06-06T07:18:31.699Z,2016.00
2023-06-06T07:19:31.680Z,2024.00
2023-06-06T07:20:31.700Z,2036.00
2023-06-06T07:21:31.675Z,2044.00
2023-06-06T07:22:31.671Z,2052.00
2023-06-06T07:23:31.695Z,2056.00
2023-06-06T07:24:31.652Z,2068.00
2023-06-06T07:25:31.625Z,2080.00
2023-06-06T07:26:31.614Z,2084.00
2023-06-06T07:27:31.617Z,2088.00
2023-06-06T07:28:31.596Z,2096.00
2023-06-06T07:29:31.623Z,2104.00
2023-06-06T07:30:31.573Z,2112.00
2023-06-06T07:31:31.621Z,2120.00
2023-06-06T07:32:31.568Z,2124.00
2023-06-06T07:33:31.551Z,2132.00
2023-06-06T07:34:31.522Z,2140.00
2023-06-06T07:35:31.536Z,2148.00
2023-06-06T07:36:31.498Z,2156.00
2023-06-06T07:37:31.486Z,2164.00
2023-06-06T07:38:31.485Z,2176.00
2023-06-06T07:39:31.489Z,2184.00
2023-06-06T07:40:31.452Z,2184.00
2023-06-06T07:41:31.480Z,2192.00
2023-06-06T07:42:31.421Z,2204.00
2023-06-06T07:43:31.431Z,2212.00
2023-06-06T07:44:31.435Z,2216.00
2023-06-06T07:45:31.439Z,2228.00
2023-06-06T07:46:31.447Z,2236.00
2023-06-06T07:47:31.476Z,2240.00
2023-06-06T07:48:31.384Z,2252.00
2023-06-06T07:49:31.363Z,2256.00
2023-06-06T07:50:31.351Z,2268.00
2023-06-06T07:51:31.360Z,2280.00
2023-06-06T07:52:32.170Z,2288.00
2023-06-06T07:53:31.364Z,2304.00
2023-06-06T07:54:32.835Z,2308.00
2023-06-06T07:55:31.304Z,2312.00
2023-06-06T07:56:32.008Z,2320.00
2023-06-06T07:57:31.319Z,2332.00
2023-06-06T07:58:31.976Z,2336.00
2023-06-06T07:59:31.276Z,2344.00
2023-06-06T08:00:32.736Z,2356.00
2023-06-06T08:01:31.272Z,2368.00
2023-06-06T08:02:31.611Z,2368.00
2023-06-06T08:03:31.253Z,2380.00
2023-06-06T08:04:31.236Z,2388.00
2023-06-06T08:05:31.275Z,2396.00
2023-06-06T08:06:31.212Z,2404.00
2023-06-06T08:07:32.037Z,2412.00
2023-06-06T08:08:31.160Z,2424.00
2023-06-06T08:09:31.224Z,2440.00
2023-06-06T08:10:31.134Z,2452.00
2023-06-06T08:11:31.129Z,2464.00
2023-06-06T08:12:31.141Z,2468.00
2023-06-06T08:13:31.093Z,2480.00
2023-06-06T08:14:31.076Z,2488.00
2023-06-06T08:15:31.086Z,2500.00
2023-06-06T08:16:31.057Z,2516.00
2023-06-06T08:17:31.127Z,2532.00
2023-06-06T08:18:31.066Z,2548.00
2023-06-06T08:19:31.035Z,2564.00
2023-06-06T08:20:31.030Z,2568.00
2023-06-06T08:21:31.054Z,2580.00
2023-06-06T08:22:31.026Z,2596.00
2023-06-06T08:23:31.025Z,2616.00
2023-06-06T08:24:31.120Z,2620.00
2023-06-06T08:25:30.955Z,2640.00
2023-06-06T08:26:30.964Z,2652.00
2023-06-06T08:27:30.981Z,2672.00
2023-06-06T08:28:30.972Z,2684.00
2023-06-06T08:29:30.922Z,2696.00
2023-06-06T08:30:30.934Z,2708.00
2023-06-06T08:31:31.153Z,2720.00
2023-06-06T08:32:30.936Z,2732.00
2023-06-06T08:33:30.886Z,2740.00
2023-06-06T08:34:30.878Z,2756.00
2023-06-06T08:35:30.838Z,2768.00
2023-06-06T08:36:30.874Z,2780.00
2023-06-06T08:37:30.835Z,2788.00
2023-06-06T08:38:30.861Z,2804.00
2023-06-06T08:39:30.818Z,2820.00
2023-06-06T08:40:30.798Z,2832.00
2023-06-06T08:41:30.792Z,2840.00
2023-06-06T08:42:30.789Z,2856.00
2023-06-06T08:43:30.767Z,2876.00
2023-06-06T08:44:30.760Z,2892.00
2023-06-06T08:45:30.848Z,2908.00
2023-06-06T08:46:30.763Z,2912.00
2023-06-06T08:47:30.802Z,2924.00
2023-06-06T08:48:30.730Z,2936.00
2023-06-06T08:49:30.715Z,2948.00
2023-06-06T08:50:30.716Z,2956.00
2023-06-06T08:51:30.698Z,2976.00
2023-06-06T08:52:30.693Z,2988.00
2023-06-06T08:53:30.663Z,3012.00
2023-06-06T08:54:30.681Z,3028.00
2023-06-06T08:55:30.643Z,3044.00
2023-06-06T08:56:30.668Z,3056.00
2023-06-06T08:57:31.008Z,3076.00
2023-06-06T08:58:30.629Z,3092.00
2023-06-06T08:59:30.665Z,3112.00
2023-06-06T09:00:30.629Z,3128.00
2023-06-06T09:01:30.602Z,3148.00
2023-06-06T09:02:30.599Z,3172.00
2023-06-06T09:03:32.368Z,3192.00
2023-06-06T09:04:30.542Z,3220.00
2023-06-06T09:05:30.523Z,3236.00
2023-06-06T09:06:30.588Z,3256.00
2023-06-06T09:07:30.524Z,3276.00
2023-06-06T09:08:30.497Z,3296.00
2023-06-06T09:09:30.500Z,3320.00
2023-06-06T09:10:30.496Z,3344.00
2023-06-06T09:11:30.490Z,3368.00
2023-06-06T09:12:30.476Z,3388.00
2023-06-06T09:13:30.464Z,3408.00
2023-06-06T09:14:30.444Z,3432.00
2023-06-06T09:15:30.430Z,3460.00
2023-06-06T09:16:30.463Z,3488.00
2023-06-06T09:17:30.467Z,3504.00
2023-06-06T09:18:30.403Z,3532.00
2023-06-06T09:19:30.393Z,3556.00
2023-06-06T09:20:30.454Z,3584.00
2023-06-06T09:21:30.481Z,3604.00
2023-06-06T09:22:30.369Z,3628.00
2023-06-06T09:23:32.572Z,3652.00
2023-06-06T09:24:30.387Z,3676.00
2023-06-06T09:25:31.369Z,3700.00
2023-06-06T09:26:30.406Z,3720.00
2023-06-06T09:27:31.018Z,3744.00
2023-06-06T09:28:30.324Z,3768.00
2023-06-06T09:29:30.336Z,3792.00
2023-06-06T09:30:31.275Z,3808.00
2023-06-06T09:31:31.769Z,3824.00
2023-06-06T09:32:30.638Z,3844.00
2023-06-06T09:33:30.679Z,3860.00
2023-06-06T09:34:30.250Z,3872.00
2023-06-06T09:35:30.228Z,3892.00
2023-06-06T09:36:30.206Z,3908.00
2023-06-06T09:37:30.236Z,3928.00
2023-06-06T09:38:30.204Z,3948.00
2023-06-06T09:39:30.178Z,3960.00
2023-06-06T09:40:30.199Z,3980.00
2023-06-06T09:41:30.155Z,3996.00
2023-06-06T09:42:30.130Z,4012.00
2023-06-06T09:43:30.123Z,4032.00
2023-06-06T09:44:30.192Z,4056.00
2023-06-06T09:45:30.223Z,4072.00
2023-06-06T09:46:30.177Z,4096.00
2023-06-06T09:47:30.191Z,4116.00
2023-06-06T09:48:30.194Z,4136.00
2023-06-06T09:49:30.061Z,4156.00
2023-06-06T09:50:30.120Z,4184.00
2023-06-06T09:51:30.057Z,4204.00
2023-06-06T09:52:30.030Z,4224.00
2023-06-06T09:53:30.130Z,4240.00
2023-06-06T09:54:30.027Z,4256.00
2023-06-06T09:55:30.016Z,4276.00
2023-06-06T09:56:30.032Z,4300.00
2023-06-06T09:57:29.970Z,4324.00
2023-06-06T09:58:29.964Z,4344.00
2023-06-06T09:59:29.960Z,4364.00
2023-06-06T10:00:29.978Z,4392.00
2023-06-06T10:01:30.031Z,4424.00
2023-06-06T10:02:30.418Z,4452.00
2023-06-06T10:03:30.003Z,4480.00
2023-06-06T10:04:30.140Z,4500.00
2023-06-06T10:05:30.047Z,4520.00
2023-06-06T10:06:29.882Z,4540.00
2023-06-06T10:07:29.870Z,4564.00
2023-06-06T10:08:29.855Z,4596.00
2023-06-06T10:09:29.926Z,4628.00
2023-06-06T10:10:29.915Z,4664.00
2023-06-06T10:11:29.810Z,4688.00
2023-06-06T10:12:29.826Z,4712.00
2023-06-06T10:13:29.818Z,4728.00
2023-06-06T10:14:30.063Z,4756.00
2023-06-06T10:15:29.778Z,4792.00
2023-06-06T10:16:30.684Z,4864.00
2023-06-06T10:17:29.772Z,5012.00
2023-06-06T10:18:29.780Z,4920.00
2023-06-06T10:19:29.736Z,4988.00
2023-06-06T10:20:29.753Z,5200.00
2023-06-06T10:21:29.722Z,5640.00
2023-06-06T10:22:29.777Z,5732.00
2023-06-06T10:23:29.786Z,5800.00
2023-06-06T10:24:29.811Z,5672.00
2023-06-06T10:25:29.678Z,5416.00
2023-06-06T10:26:29.655Z,5316.00
2023-06-06T10:27:29.683Z,5104.00
2023-06-06T10:28:29.652Z,5052.00
2023-06-06T10:29:29.641Z,5244.00
2023-06-06T10:30:29.610Z,5296.00
2023-06-06T10:31:29.628Z,5424.00
2023-06-06T10:32:29.640Z,5516.00
2023-06-06T10:33:29.594Z,5520.00
2023-06-06T10:34:29.577Z,5644.00
2023-06-06T10:35:29.599Z,5724.00
2023-06-06T10:36:29.569Z,5920.00
2023-06-06T10:37:29.536Z,6084.00
2023-06-06T10:38:29.568Z,6068.00
2023-06-06T10:39:29.550Z,6120.00
2023-06-06T10:40:29.531Z,6040.00
2023-06-06T10:41:29.546Z,5988.00
2023-06-06T10:42:29.524Z,6012.00
2023-06-06T10:44:29.502Z,6328.00
2023-06-06T10:45:29.481Z,6880.00
2023-06-06T10:46:29.530Z,6808.00
2023-06-06T10:47:29.793Z,6888.00
2023-06-06T10:48:29.456Z,6936.00
2023-06-06T10:49:29.440Z,6760.00
2023-06-06T10:50:29.418Z,6856.00
2023-06-06T10:51:29.427Z,6820.00
2023-06-06T10:52:29.420Z,6808.00
2023-06-06T10:53:29.398Z,7128.00
2023-06-06T10:54:29.352Z,7164.00
2023-06-06T10:55:29.496Z,7084.00
2023-06-06T10:56:29.335Z,6968.00
2023-06-06T10:57:29.362Z,6932.00
2023-06-06T10:58:29.343Z,7068.00
2023-06-06T10:59:29.385Z,7212.00
2023-06-06T11:00:29.349Z,7112.00
2023-06-06T11:01:29.345Z,7048.00
2023-06-06T11:02:29.344Z,7140.00
2023-06-06T11:03:29.318Z,7028.00
2023-06-06T11:04:29.386Z,6940.00
2023-06-06T11:05:29.244Z,7012.00
2023-06-06T11:06:29.262Z,7100.00
2023-06-06T11:07:29.216Z,7368.00
2023-06-06T11:08:30.408Z,8076.00
2023-06-06T11:09:29.197Z,8532.00
2023-06-06T11:10:29.204Z,7956.00
2023-06-06T11:11:29.174Z,7828.00
2023-06-06T11:12:29.237Z,7844.00
2023-06-06T11:13:29.167Z,7476.00
2023-06-06T11:14:29.192Z,7188.00
2023-06-06T11:15:29.175Z,7084.00
2023-06-06T11:16:29.214Z,7036.00
2023-06-06T11:17:29.200Z,7060.00
2023-06-06T11:18:29.122Z,7120.00
2023-06-06T11:19:29.113Z,7168.00
2023-06-06T11:20:29.090Z,7188.00
2023-06-06T11:21:29.091Z,7188.00
2023-06-06T11:22:29.114Z,7196.00
2023-06-06T11:23:29.076Z,6560.00
2023-06-06T11:24:29.041Z,6656.00
2023-06-06T11:25:29.049Z,7084.00
2023-06-06T11:26:29.770Z,7796.00
2023-06-06T11:27:29.080Z,7772.00
2023-06-06T11:28:29.034Z,8080.00
2023-06-06T11:29:29.011Z,8280.00
2023-06-06T11:30:29.002Z,8092.00
2023-06-06T11:31:29.058Z,7876.00
2023-06-06T11:32:28.994Z,7764.00
2023-06-06T11:33:28.929Z,7700.00
2023-06-06T11:34:28.943Z,7688.00
2023-06-06T11:35:28.963Z,7664.00
2023-06-06T11:36:29.827Z,7612.00
2023-06-06T11:37:28.905Z,7580.00
2023-06-06T11:38:28.889Z,7604.00
2023-06-06T11:39:28.899Z,7656.00
2023-06-06T11:40:28.888Z,7728.00
2023-06-06T11:41:28.876Z,7760.00
2023-06-06T11:42:28.861Z,7788.00
2023-06-06T11:43:28.871Z,7832.00
2023-06-06T11:44:28.866Z,7856.00
2023-06-06T11:45:28.863Z,7884.00
2023-06-06T11:46:28.952Z,7952.00
2023-06-06T11:47:28.825Z,8024.00
2023-06-06T11:48:28.882Z,8076.00
2023-06-06T11:49:28.785Z,8160.00
2023-06-06T11:50:28.802Z,8264.00
2023-06-06T11:51:28.761Z,8304.00
2023-06-06T11:52:28.809Z,8400.00
2023-06-06T11:53:28.733Z,8620.00
2023-06-06T11:54:31.107Z,8976.00
2023-06-06T11:55:28.702Z,9144.00
2023-06-06T11:56:28.738Z,9272.00
2023-06-06T11:57:28.680Z,9408.00
2023-06-06T11:58:28.712Z,9536.00
2023-06-06T11:59:28.653Z,9652.00
2023-06-06T12:00:28.676Z,9720.00
2023-06-06T12:01:28.624Z,9800.00
2023-06-06T12:02:28.738Z,9904.00
2023-06-06T12:03:28.715Z,9928.00
2023-06-06T12:04:28.596Z,9952.00
2023-06-06T12:05:28.636Z,9972.00
2023-06-06T12:06:29.174Z,10036.00
2023-06-06T12:07:28.583Z,10128.00
2023-06-06T12:08:28.584Z,10324.00
2023-06-06T12:09:28.559Z,10536.00
2023-06-06T12:10:28.555Z,10824.00
2023-06-06T12:11:28.539Z,11196.00
2023-06-06T12:12:28.527Z,11636.00
2023-06-06T12:13:28.552Z,12144.00
2023-06-06T12:14:28.530Z,12868.00
2023-06-06T12:15:28.537Z,13724.00
2023-06-06T12:16:28.598Z,14568.00
2023-06-06T12:17:28.504Z,15396.00
2023-06-06T12:18:28.468Z,15956.00
2023-06-06T12:19:28.445Z,16448.00
2023-06-06T12:20:28.472Z,16800.00
2023-06-06T12:21:28.425Z,17120.00
2023-06-06T12:22:28.434Z,17664.00
2023-06-06T12:23:28.439Z,18272.00
2023-06-06T12:24:29.352Z,19264.00
2023-06-06T12:25:28.427Z,28608.00
2023-06-06T12:26:28.401Z,56832.00
2023-06-06T12:27:28.382Z,68224.00